sensor_id;sensor_type;location;lat;lon;timestamp;pressure;altitude;pressure_sealevel;temperature;humidity
49072;BME280;74284;52.610;10.236;2023-12-20T00:01:16;100635.34;;;10.36;77.28
49072;BME280;74284;52.610;10.236;2023-12-20T00:03:41;100629.00;;;10.40;76.47
49072;BME280;74284;52.610;10.236;2023-12-20T00:06:06;100638.03;;;10.35;76.59
49072;BME280;74284;52.610;10.236;2023-12-20T00:08:32;100630.63;;;10.43;75.54
49072;BME280;74284;52.610;10.236;2023-12-20T00:10:57;100629.22;;;10.34;76.08
49072;BME280;74284;52.610;10.236;2023-12-20T00:13:22;100632.38;;;10.22;76.26
49072;BME280;74284;52.610;10.236;2023-12-20T00:15:48;100634.84;;;10.27;76.19
49072;BME280;74284;52.610;10.236;2023-12-20T00:18:13;100637.50;;;10.27;75.26
49072;BME280;74284;52.610;10.236;2023-12-20T00:20:38;100620.69;;;10.28;75.38
49072;BME280;74284;52.610;10.236;2023-12-20T00:23:04;100620.88;;;10.23;75.38
49072;BME280;74284;52.610;10.236;2023-12-20T00:25:29;100630.59;;;10.01;76.80
49072;BME280;74284;52.610;10.236;2023-12-20T00:27:54;100627.31;;;10.16;75.98
49072;BME280;74284;52.610;10.236;2023-12-20T00:30:20;100625.84;;;10.09;76.04
49072;BME280;74284;52.610;10.236;2023-12-20T00:32:45;100629.66;;;10.02;76.18
49072;BME280;74284;52.610;10.236;2023-12-20T00:35:14;100634.69;;;10.08;75.44
49072;BME280;74284;52.610;10.236;2023-12-20T00:37:39;100634.69;;;10.08;75.78
49072;BME280;74284;52.610;10.236;2023-12-20T00:40:05;100636.81;;;10.00;75.06
49072;BME280;74284;52.610;10.236;2023-12-20T00:42:31;100645.78;;;9.96;76.17
49072;BME280;74284;52.610;10.236;2023-12-20T00:44:56;100635.97;;;9.98;75.63
49072;BME280;74284;52.610;10.236;2023-12-20T00:47:21;100623.09;;;9.88;76.07
49072;BME280;74284;52.610;10.236;2023-12-20T00:49:47;100626.16;;;10.01;75.26
49072;BME280;74284;52.610;10.236;2023-12-20T00:52:12;100629.16;;;9.68;76.35
49072;BME280;74284;52.610;10.236;2023-12-20T00:54:37;100627.06;;;9.77;76.60
49072;BME280;74284;52.610;10.236;2023-12-20T00:57:03;100624.44;;;9.77;75.72
49072;BME280;74284;52.610;10.236;2023-12-20T00:59:28;100635.00;;;9.77;76.03
49072;BME280;74284;52.610;10.236;2023-12-20T01:01:54;100624.16;;;9.84;75.28
49072;BME280;74284;52.610;10.236;2023-12-20T01:04:19;100625.28;;;9.77;75.48
49072;BME280;74284;52.610;10.236;2023-12-20T01:06:44;100632.47;;;9.74;75.69
49072;BME280;74284;52.610;10.236;2023-12-20T01:09:09;100642.22;;;9.72;75.33
49072;BME280;74284;52.610;10.236;2023-12-20T01:11:35;100648.25;;;9.77;74.87
49072;BME280;74284;52.610;10.236;2023-12-20T01:14:00;100639.47;;;9.75;74.86
49072;BME280;74284;52.610;10.236;2023-12-20T01:16:25;100640.41;;;9.74;74.91
49072;BME280;74284;52.610;10.236;2023-12-20T01:18:51;100634.09;;;9.54;75.87
49072;BME280;74284;52.610;10.236;2023-12-20T01:21:16;100636.31;;;9.41;76.63
49072;BME280;74284;52.610;10.236;2023-12-20T01:23:41;100627.94;;;9.54;75.58
49072;BME280;74284;52.610;10.236;2023-12-20T01:26:06;100630.59;;;9.54;75.20
49072;BME280;74284;52.610;10.236;2023-12-20T01:28:32;100629.19;;;9.43;75.67
49072;BME280;74284;52.610;10.236;2023-12-20T01:30:57;100626.78;;;9.37;76.15
49072;BME280;74284;52.610;10.236;2023-12-20T01:33:23;100622.88;;;9.48;75.15
49072;BME280;74284;52.610;10.236;2023-12-20T01:35:48;100628.13;;;9.49;74.86
49072;BME280;74284;52.610;10.236;2023-12-20T01:38:14;100636.50;;;9.37;75.67
49072;BME280;74284;52.610;10.236;2023-12-20T01:40:39;100632.69;;;9.44;74.96
49072;BME280;74284;52.610;10.236;2023-12-20T01:43:08;100639.13;;;9.37;74.97
49072;BME280;74284;52.610;10.236;2023-12-20T01:45:35;100638.47;;;9.30;75.15
49072;BME280;74284;52.610;10.236;2023-12-20T01:48:00;100633.66;;;9.18;75.91
49072;BME280;74284;52.610;10.236;2023-12-20T01:50:28;100636.28;;;9.18;75.64
49072;BME280;74284;52.610;10.236;2023-12-20T01:52:54;100633.28;;;9.52;74.48
49072;BME280;74284;52.610;10.236;2023-12-20T01:55:22;100637.69;;;9.28;74.53
49072;BME280;74284;52.610;10.236;2023-12-20T01:57:48;100631.28;;;9.10;75.27
49072;BME280;74284;52.610;10.236;2023-12-20T02:00:14;100639.03;;;9.15;74.70
49072;BME280;74284;52.610;10.236;2023-12-20T02:02:40;100637.25;;;9.15;75.13
49072;BME280;74284;52.610;10.236;2023-12-20T02:05:06;100640.44;;;9.00;75.78
49072;BME280;74284;52.610;10.236;2023-12-20T02:07:32;100624.53;;;9.02;75.09
49072;BME280;74284;52.610;10.236;2023-12-20T02:09:58;100631.66;;;9.00;75.78
49072;BME280;74284;52.610;10.236;2023-12-20T02:12:23;100634.66;;;8.89;76.03
49072;BME280;74284;52.610;10.236;2023-12-20T02:14:49;100640.69;;;8.92;75.12
49072;BME280;74284;52.610;10.236;2023-12-20T02:17:15;100620.41;;;8.95;75.04
49072;BME280;74284;52.610;10.236;2023-12-20T02:19:40;100623.13;;;8.91;74.93
49072;BME280;74284;52.610;10.236;2023-12-20T02:22:10;100619.50;;;8.94;74.90
49072;BME280;74284;52.610;10.236;2023-12-20T02:24:35;100617.31;;;8.82;75.60
49072;BME280;74284;52.610;10.236;2023-12-20T02:27:01;100607.47;;;8.60;75.86
49072;BME280;74284;52.610;10.236;2023-12-20T02:29:26;100607.88;;;8.75;75.38
49072;BME280;74284;52.610;10.236;2023-12-20T02:31:52;100618.44;;;8.75;75.14
49072;BME280;74284;52.610;10.236;2023-12-20T02:34:17;100615.69;;;8.78;74.25
49072;BME280;74284;52.610;10.236;2023-12-20T02:36:42;100614.00;;;8.75;74.91
49072;BME280;74284;52.610;10.236;2023-12-20T02:39:08;100612.22;;;8.76;74.87
49072;BME280;74284;52.610;10.236;2023-12-20T02:41:33;100617.66;;;8.71;75.45
49072;BME280;74284;52.610;10.236;2023-12-20T02:43:58;100611.81;;;8.36;77.81
49072;BME280;74284;52.610;10.236;2023-12-20T02:46:24;100615.69;;;8.51;76.18
49072;BME280;74284;52.610;10.236;2023-12-20T02:48:49;100612.06;;;8.55;76.59
49072;BME280;74284;52.610;10.236;2023-12-20T02:51:14;100612.13;;;8.54;77.20
49072;BME280;74284;52.610;10.236;2023-12-20T02:53:40;100605.91;;;8.55;77.27
49072;BME280;74284;52.610;10.236;2023-12-20T02:56:06;100608.19;;;8.65;76.24
49072;BME280;74284;52.610;10.236;2023-12-20T02:58:31;100610.13;;;8.60;75.75
49072;BME280;74284;52.610;10.236;2023-12-20T03:00:56;100608.94;;;8.43;78.02
49072;BME280;74284;52.610;10.236;2023-12-20T03:03:21;100610.38;;;8.53;77.02
49072;BME280;74284;52.610;10.236;2023-12-20T03:05:47;100598.94;;;8.26;78.12
49072;BME280;74284;52.610;10.236;2023-12-20T03:08:12;100596.75;;;8.38;78.34
49072;BME280;74284;52.610;10.236;2023-12-20T03:10:37;100600.88;;;8.47;77.42
49072;BME280;74284;52.610;10.236;2023-12-20T03:13:03;100600.25;;;8.65;76.74
49072;BME280;74284;52.610;10.236;2023-12-20T03:15:28;100601.88;;;8.70;76.21
49072;BME280;74284;52.610;10.236;2023-12-20T03:17:53;100597.69;;;8.64;76.64
49072;BME280;74284;52.610;10.236;2023-12-20T03:20:19;100590.22;;;8.50;77.30
49072;BME280;74284;52.610;10.236;2023-12-20T03:22:44;100574.78;;;8.64;76.56
49072;BME280;74284;52.610;10.236;2023-12-20T03:25:09;100574.25;;;8.53;76.66
49072;BME280;74284;52.610;10.236;2023-12-20T03:27:37;100576.09;;;8.51;76.75
49072;BME280;74284;52.610;10.236;2023-12-20T03:30:04;100573.88;;;8.39;77.12
49072;BME280;74284;52.610;10.236;2023-12-20T03:32:29;100555.31;;;8.42;76.98
49072;BME280;74284;52.610;10.236;2023-12-20T03:34:55;100551.72;;;8.45;76.81
49072;BME280;74284;52.610;10.236;2023-12-20T03:37:21;100547.38;;;8.42;77.38
49072;BME280;74284;52.610;10.236;2023-12-20T03:39:46;100542.06;;;8.15;78.85
49072;BME280;74284;52.610;10.236;2023-12-20T03:42:12;100539.84;;;8.31;77.64
49072;BME280;74284;52.610;10.236;2023-12-20T03:44:38;100535.66;;;8.51;77.39
49072;BME280;74284;52.610;10.236;2023-12-20T03:47:03;100533.00;;;8.51;75.64
49072;BME280;74284;52.610;10.236;2023-12-20T03:49:29;100534.09;;;8.45;76.01
49072;BME280;74284;52.610;10.236;2023-12-20T03:51:54;100541.13;;;8.18;77.91
49072;BME280;74284;52.610;10.236;2023-12-20T03:54:19;100539.28;;;8.20;77.59
49072;BME280;74284;52.610;10.236;2023-12-20T03:56:44;100541.78;;;8.51;75.93
49072;BME280;74284;52.610;10.236;2023-12-20T03:59:10;100541.03;;;8.48;75.57
49072;BME280;74284;52.610;10.236;2023-12-20T04:01:35;100541.56;;;8.32;76.81
49072;BME280;74284;52.610;10.236;2023-12-20T04:04:01;100541.56;;;8.32;76.97
49072;BME280;74284;52.610;10.236;2023-12-20T04:06:26;100545.16;;;8.30;77.15
49072;BME280;74284;52.610;10.236;2023-12-20T04:08:51;100537.75;;;8.41;76.70
49072;BME280;74284;52.610;10.236;2023-12-20T04:11:17;100528.75;;;8.47;76.10
49072;BME280;74284;52.610;10.236;2023-12-20T04:13:42;100531.16;;;8.53;76.08
49072;BME280;74284;52.610;10.236;2023-12-20T04:16:07;100529.13;;;8.36;77.19
49072;BME280;74284;52.610;10.236;2023-12-20T04:18:33;100526.81;;;8.27;78.79
49072;BME280;74284;52.610;10.236;2023-12-20T04:20:58;100535.88;;;8.45;77.26
49072;BME280;74284;52.610;10.236;2023-12-20T04:23:23;100527.66;;;8.27;77.32
49072;BME280;74284;52.610;10.236;2023-12-20T04:25:49;100529.56;;;8.22;78.41
49072;BME280;74284;52.610;10.236;2023-12-20T04:28:14;100530.47;;;8.48;76.95
49072;BME280;74284;52.610;10.236;2023-12-20T04:30:39;100527.19;;;8.41;77.25
49072;BME280;74284;52.610;10.236;2023-12-20T04:33:04;100518.88;;;8.52;77.02
49072;BME280;74284;52.610;10.236;2023-12-20T04:35:30;100521.06;;;8.40;78.04
49072;BME280;74284;52.610;10.236;2023-12-20T04:37:55;100523.69;;;8.40;77.97
49072;BME280;74284;52.610;10.236;2023-12-20T04:40:20;100519.81;;;8.51;77.51
49072;BME280;74284;52.610;10.236;2023-12-20T04:42:46;100518.25;;;8.45;78.13
49072;BME280;74284;52.610;10.236;2023-12-20T04:45:11;100509.25;;;8.51;77.78
49072;BME280;74284;52.610;10.236;2023-12-20T04:47:38;100515.66;;;8.44;78.35
49072;BME280;74284;52.610;10.236;2023-12-20T04:50:04;100508.41;;;8.50;77.31
49072;BME280;74284;52.610;10.236;2023-12-20T04:52:30;100510.75;;;8.33;78.59
49072;BME280;74284;52.610;10.236;2023-12-20T04:54:55;100503.88;;;8.54;77.82
49072;BME280;74284;52.610;10.236;2023-12-20T04:57:21;100513.34;;;8.59;77.49
49072;BME280;74284;52.610;10.236;2023-12-20T04:59:46;100501.25;;;8.52;77.95
49072;BME280;74284;52.610;10.236;2023-12-20T05:02:11;100502.44;;;8.44;78.04
49072;BME280;74284;52.610;10.236;2023-12-20T05:04:37;100499.97;;;8.64;76.53
49072;BME280;74284;52.610;10.236;2023-12-20T05:07:02;100502.63;;;8.64;76.36
49072;BME280;74284;52.610;10.236;2023-12-20T05:09:30;100507.03;;;8.63;76.38
49072;BME280;74284;52.610;10.236;2023-12-20T05:11:55;100516.03;;;8.58;77.10
49072;BME280;74284;52.610;10.236;2023-12-20T05:14:20;100509.88;;;8.57;76.77
49072;BME280;74284;52.610;10.236;2023-12-20T05:16:48;100510.25;;;8.72;75.92
49072;BME280;74284;52.610;10.236;2023-12-20T05:19:13;100507.25;;;8.57;76.62
49072;BME280;74284;52.610;10.236;2023-12-20T05:21:39;100501.34;;;8.51;77.32
49072;BME280;74284;52.610;10.236;2023-12-20T05:24:05;100497.28;;;8.65;76.55
49072;BME280;74284;52.610;10.236;2023-12-20T05:26:30;100498.19;;;8.64;77.04
49072;BME280;74284;52.610;10.236;2023-12-20T05:28:56;100497.38;;;8.62;77.14
49072;BME280;74284;52.610;10.236;2023-12-20T05:31:21;100501.09;;;8.82;75.40
49072;BME280;74284;52.610;10.236;2023-12-20T05:33:46;100493.09;;;8.60;76.84
49072;BME280;74284;52.610;10.236;2023-12-20T05:36:11;100496.16;;;8.73;76.25
49072;BME280;74284;52.610;10.236;2023-12-20T05:38:38;100489.44;;;8.64;76.22
49072;BME280;74284;52.610;10.236;2023-12-20T05:41:04;100489.13;;;8.72;76.25
49072;BME280;74284;52.610;10.236;2023-12-20T05:43:29;100481.59;;;8.61;76.81
49072;BME280;74284;52.610;10.236;2023-12-20T05:45:55;100488.69;;;8.84;75.70
49072;BME280;74284;52.610;10.236;2023-12-20T05:48:20;100483.25;;;8.88;75.18
49072;BME280;74284;52.610;10.236;2023-12-20T05:50:45;100491.50;;;8.79;76.05
49072;BME280;74284;52.610;10.236;2023-12-20T05:53:11;100492.91;;;8.64;76.77
49072;BME280;74284;52.610;10.236;2023-12-20T05:55:36;100487.22;;;8.77;76.13
49072;BME280;74284;52.610;10.236;2023-12-20T05:58:01;100494.75;;;8.62;76.79
49072;BME280;74284;52.610;10.236;2023-12-20T06:00:26;100494.91;;;8.83;75.81
49072;BME280;74284;52.610;10.236;2023-12-20T06:02:52;100484.50;;;8.78;76.02
49072;BME280;74284;52.610;10.236;2023-12-20T06:05:17;100484.66;;;8.74;75.96
49072;BME280;74284;52.610;10.236;2023-12-20T06:07:43;100484.78;;;8.94;74.79
49072;BME280;74284;52.610;10.236;2023-12-20T06:10:10;100480.69;;;8.85;75.56
49072;BME280;74284;52.610;10.236;2023-12-20T06:12:35;100480.88;;;8.81;75.54
49072;BME280;74284;52.610;10.236;2023-12-20T06:15:02;100484.06;;;8.90;75.33
49072;BME280;74284;52.610;10.236;2023-12-20T06:17:27;100489.84;;;9.00;74.64
49072;BME280;74284;52.610;10.236;2023-12-20T06:19:55;100489.44;;;8.64;76.68
49072;BME280;74284;52.610;10.236;2023-12-20T06:22:20;100489.63;;;8.58;76.85
49072;BME280;74284;52.610;10.236;2023-12-20T06:24:45;100491.91;;;8.92;75.05
49072;BME280;74284;52.610;10.236;2023-12-20T06:27:11;100485.84;;;8.65;75.82
49072;BME280;74284;52.610;10.236;2023-12-20T06:29:36;100483.75;;;8.75;75.46
49072;BME280;74284;52.610;10.236;2023-12-20T06:32:02;100475.81;;;8.75;74.96
49072;BME280;74284;52.610;10.236;2023-12-20T06:34:27;100481.59;;;8.86;74.47
49072;BME280;74284;52.610;10.236;2023-12-20T06:36:52;100462.59;;;9.00;73.89
49072;BME280;74284;52.610;10.236;2023-12-20T06:39:18;100466.75;;;9.05;73.28
49072;BME280;74284;52.610;10.236;2023-12-20T06:41:43;100462.22;;;8.85;74.31
49072;BME280;74284;52.610;10.236;2023-12-20T06:44:08;100461.25;;;8.88;73.97
49072;BME280;74284;52.610;10.236;2023-12-20T06:46:34;100461.41;;;8.83;74.11
49072;BME280;74284;52.610;10.236;2023-12-20T06:48:59;100454.66;;;9.00;73.42
49072;BME280;74284;52.610;10.236;2023-12-20T06:51:25;100462.69;;;8.97;73.80
49072;BME280;74284;52.610;10.236;2023-12-20T06:53:51;100458.94;;;8.79;74.13
49072;BME280;74284;52.610;10.236;2023-12-20T06:56:17;100453.59;;;8.80;73.64
49072;BME280;74284;52.610;10.236;2023-12-20T06:58:42;100453.31;;;8.88;73.72
49072;BME280;74284;52.610;10.236;2023-12-20T07:01:15;100456.88;;;9.10;72.73
49072;BME280;74284;52.610;10.236;2023-12-20T07:03:40;100447.94;;;8.91;73.39
49072;BME280;74284;52.610;10.236;2023-12-20T07:06:06;100461.47;;;9.05;72.68
49072;BME280;74284;52.610;10.236;2023-12-20T07:08:32;100460.03;;;8.97;73.32
49072;BME280;74284;52.610;10.236;2023-12-20T07:10:57;100460.97;;;8.96;73.32
49072;BME280;74284;52.610;10.236;2023-12-20T07:13:22;100463.19;;;8.83;74.16
49072;BME280;74284;52.610;10.236;2023-12-20T07:15:48;100466.00;;;9.02;73.65
49072;BME280;74284;52.610;10.236;2023-12-20T07:18:14;100456.31;;;9.02;73.39
49072;BME280;74284;52.610;10.236;2023-12-20T07:20:39;100440.47;;;8.79;74.37
49072;BME280;74284;52.610;10.236;2023-12-20T07:23:04;100449.00;;;8.85;74.01
49072;BME280;74284;52.610;10.236;2023-12-20T07:25:30;100461.88;;;8.71;74.44
49072;BME280;74284;52.610;10.236;2023-12-20T07:27:58;100445.28;;;8.68;73.48
49072;BME280;74284;52.610;10.236;2023-12-20T07:30:23;100443.69;;;8.87;73.46
49072;BME280;74284;52.610;10.236;2023-12-20T07:32:48;100460.16;;;8.70;73.67
49072;BME280;74284;52.610;10.236;2023-12-20T07:35:15;100446.06;;;8.95;72.87
49072;BME280;74284;52.610;10.236;2023-12-20T07:37:41;100440.03;;;8.89;73.19
49072;BME280;74284;52.610;10.236;2023-12-20T07:40:07;100448.38;;;8.79;73.10
49072;BME280;74284;52.610;10.236;2023-12-20T07:42:32;100457.06;;;9.06;72.27
49072;BME280;74284;52.610;10.236;2023-12-20T07:44:58;100456.19;;;9.05;72.18
49072;BME280;74284;52.610;10.236;2023-12-20T07:47:23;100468.75;;;8.75;72.96
49072;BME280;74284;52.610;10.236;2023-12-20T07:49:50;100457.47;;;8.95;71.98
49072;BME280;74284;52.610;10.236;2023-12-20T07:52:17;100454.09;;;8.66;72.75
49072;BME280;74284;52.610;10.236;2023-12-20T07:54:43;100429.91;;;8.79;73.39
49072;BME280;74284;52.610;10.236;2023-12-20T07:57:10;100435.44;;;8.71;73.06
49072;BME280;74284;52.610;10.236;2023-12-20T07:59:35;100434.75;;;8.66;73.11
49072;BME280;74284;52.610;10.236;2023-12-20T08:02:01;100436.78;;;8.59;73.05
49072;BME280;74284;52.610;10.236;2023-12-20T08:04:26;100444.44;;;8.90;72.07
49072;BME280;74284;52.610;10.236;2023-12-20T08:06:52;100441.47;;;8.98;71.69
49072;BME280;74284;52.610;10.236;2023-12-20T08:09:17;100429.28;;;8.96;71.59
49072;BME280;74284;52.610;10.236;2023-12-20T08:11:46;100435.53;;;8.70;71.96
49072;BME280;74284;52.610;10.236;2023-12-20T08:14:12;100433.28;;;8.82;72.83
49072;BME280;74284;52.610;10.236;2023-12-20T08:16:37;100431.69;;;8.78;73.07
49072;BME280;74284;52.610;10.236;2023-12-20T08:19:03;100441.38;;;9.01;71.97
49072;BME280;74284;52.610;10.236;2023-12-20T08:21:28;100438.63;;;8.81;72.66
49072;BME280;74284;52.610;10.236;2023-12-20T08:23:53;100424.94;;;8.93;72.10
49072;BME280;74284;52.610;10.236;2023-12-20T08:26:19;100430.31;;;8.91;71.93
49072;BME280;74284;52.610;10.236;2023-12-20T08:28:46;100436.28;;;8.73;72.80
49072;BME280;74284;52.610;10.236;2023-12-20T08:31:15;100431.50;;;8.83;72.12
49072;BME280;74284;52.610;10.236;2023-12-20T08:33:43;100420.53;;;8.93;72.71
49072;BME280;74284;52.610;10.236;2023-12-20T08:36:09;100418.84;;;9.14;71.18
49072;BME280;74284;52.610;10.236;2023-12-20T08:38:34;100410.59;;;8.53;72.60
49072;BME280;74284;52.610;10.236;2023-12-20T08:41:00;100411.81;;;8.91;72.54
49072;BME280;74284;52.610;10.236;2023-12-20T08:43:26;100409.53;;;9.28;70.79
49072;BME280;74284;52.610;10.236;2023-12-20T08:45:51;100396.09;;;9.10;71.39
49072;BME280;74284;52.610;10.236;2023-12-20T08:48:17;100399.41;;;8.93;72.16
49072;BME280;74284;52.610;10.236;2023-12-20T08:50:42;100398.78;;;8.87;72.44
49072;BME280;74284;52.610;10.236;2023-12-20T08:53:08;100398.03;;;8.83;72.53
49072;BME280;74284;52.610;10.236;2023-12-20T08:55:33;100384.75;;;8.85;72.29
49072;BME280;74284;52.610;10.236;2023-12-20T08:57:59;100397.75;;;8.91;72.48
49072;BME280;74284;52.610;10.236;2023-12-20T09:00:24;100388.59;;;9.22;71.49
49072;BME280;74284;52.610;10.236;2023-12-20T09:02:52;100391.19;;;9.01;72.53
49072;BME280;74284;52.610;10.236;2023-12-20T09:05:18;100380.25;;;9.10;71.62
49072;BME280;74284;52.610;10.236;2023-12-20T09:07:43;100387.13;;;9.14;71.73
49072;BME280;74284;52.610;10.236;2023-12-20T09:10:08;100382.94;;;8.87;73.63
49072;BME280;74284;52.610;10.236;2023-12-20T09:12:34;100387.22;;;9.13;73.00
49072;BME280;74284;52.610;10.236;2023-12-20T09:14:59;100381.03;;;9.12;73.07
49072;BME280;74284;52.610;10.236;2023-12-20T09:17:27;100388.16;;;8.88;73.81
49072;BME280;74284;52.610;10.236;2023-12-20T09:19:52;100370.91;;;9.02;73.80
49072;BME280;74284;52.610;10.236;2023-12-20T09:22:19;100375.44;;;8.98;73.86
49072;BME280;74284;52.610;10.236;2023-12-20T09:24:44;100373.63;;;9.22;72.70
49072;BME280;74284;52.610;10.236;2023-12-20T09:27:10;100372.31;;;9.10;73.68
49072;BME280;74284;52.610;10.236;2023-12-20T09:29:35;100364.63;;;9.26;73.45
49072;BME280;74284;52.610;10.236;2023-12-20T09:32:00;100369.31;;;9.20;73.54
49072;BME280;74284;52.610;10.236;2023-12-20T09:34:26;100373.19;;;9.11;74.00
49072;BME280;74284;52.610;10.236;2023-12-20T09:36:52;100375.34;;;9.01;74.67
49072;BME280;74284;52.610;10.236;2023-12-20T09:39:18;100364.88;;;8.98;74.57
49072;BME280;74284;52.610;10.236;2023-12-20T09:41:45;100368.00;;;9.08;74.11
49072;BME280;74284;52.610;10.236;2023-12-20T09:44:16;100368.34;;;9.00;74.00
49072;BME280;74284;52.610;10.236;2023-12-20T09:46:45;100359.13;;;9.32;72.55
49072;BME280;74284;52.610;10.236;2023-12-20T09:49:13;100360.09;;;9.30;72.30
49072;BME280;74284;52.610;10.236;2023-12-20T09:51:39;100349.03;;;9.20;72.78
49072;BME280;74284;52.610;10.236;2023-12-20T09:54:05;100351.97;;;9.12;73.21
49072;BME280;74284;52.610;10.236;2023-12-20T09:56:31;100339.31;;;9.42;71.77
49072;BME280;74284;52.610;10.236;2023-12-20T09:58:56;100333.09;;;9.22;72.37
49072;BME280;74284;52.610;10.236;2023-12-20T10:01:23;100333.91;;;9.24;72.60
49072;BME280;74284;52.610;10.236;2023-12-20T10:03:50;100332.69;;;9.53;71.33
49072;BME280;74284;52.610;10.236;2023-12-20T10:06:16;100331.84;;;9.52;71.56
49072;BME280;74284;52.610;10.236;2023-12-20T10:08:41;100323.94;;;9.30;72.68
49072;BME280;74284;52.610;10.236;2023-12-20T10:11:07;100329.72;;;9.40;72.45
49072;BME280;74284;52.610;10.236;2023-12-20T10:13:32;100318.97;;;9.65;71.53
49072;BME280;74284;52.610;10.236;2023-12-20T10:15:59;100309.78;;;9.74;70.92
49072;BME280;74284;52.610;10.236;2023-12-20T10:18:24;100304.78;;;9.67;70.98
49072;BME280;74284;52.610;10.236;2023-12-20T10:20:49;100309.75;;;9.53;71.39
49072;BME280;74284;52.610;10.236;2023-12-20T10:23:15;100306.91;;;9.58;71.72
49072;BME280;74284;52.610;10.236;2023-12-20T10:25:41;100306.59;;;9.45;72.84
49072;BME280;74284;52.610;10.236;2023-12-20T10:28:14;100305.22;;;9.36;72.19
49072;BME280;74284;52.610;10.236;2023-12-20T10:30:40;100280.88;;;9.49;72.91
49072;BME280;74284;52.610;10.236;2023-12-20T10:33:07;100292.41;;;9.26;73.20
49072;BME280;74284;52.610;10.236;2023-12-20T10:35:36;100291.06;;;9.58;72.67
49072;BME280;74284;52.610;10.236;2023-12-20T10:38:06;100280.22;;;9.43;73.67
49072;BME280;74284;52.610;10.236;2023-12-20T10:40:35;100277.72;;;9.40;73.81
49072;BME280;74284;52.610;10.236;2023-12-20T10:43:04;100282.63;;;9.50;73.68
49072;BME280;74284;52.610;10.236;2023-12-20T10:45:30;100283.25;;;9.34;74.47
49072;BME280;74284;52.610;10.236;2023-12-20T10:47:56;100270.50;;;9.24;75.33
49072;BME280;74284;52.610;10.236;2023-12-20T10:50:22;100276.16;;;9.35;74.71
49072;BME280;74284;52.610;10.236;2023-12-20T10:52:47;100267.59;;;9.30;74.91
49072;BME280;74284;52.610;10.236;2023-12-20T10:55:13;100280.81;;;9.50;73.88
49072;BME280;74284;52.610;10.236;2023-12-20T10:57:39;100266.94;;;9.65;73.23
49072;BME280;74284;52.610;10.236;2023-12-20T11:00:08;100252.34;;;9.36;73.58
49072;BME280;74284;52.610;10.236;2023-12-20T11:02:39;100263.19;;;9.51;74.16
49072;BME280;74284;52.610;10.236;2023-12-20T11:10:38;100255.19;;;9.32;76.35
49072;BME280;74284;52.610;10.236;2023-12-20T11:13:17;100259.06;;;9.43;75.96
49072;BME280;74284;52.610;10.236;2023-12-20T11:15:45;100265.31;;;9.21;76.96
49072;BME280;74284;52.610;10.236;2023-12-20T11:18:11;100248.28;;;9.48;76.21
49072;BME280;74284;52.610;10.236;2023-12-20T11:20:38;100250.53;;;9.57;75.66
49072;BME280;74284;52.610;10.236;2023-12-20T11:23:04;100256.34;;;9.65;75.23
49072;BME280;74284;52.610;10.236;2023-12-20T11:25:30;100257.81;;;9.73;76.65
49072;BME280;74284;52.610;10.236;2023-12-20T11:28:12;100271.31;;;9.46;76.70
49072;BME280;74284;52.610;10.236;2023-12-20T11:30:48;100278.97;;;9.52;77.17
49072;BME280;74284;52.610;10.236;2023-12-20T11:33:15;100310.31;;;9.41;76.54
49072;BME280;74284;52.610;10.236;2023-12-20T11:35:41;100318.63;;;9.10;78.14
49072;BME280;74284;52.610;10.236;2023-12-20T11:38:10;100333.38;;;9.15;77.23
49072;BME280;74284;52.610;10.236;2023-12-20T11:40:36;100341.09;;;8.98;77.41
49072;BME280;74284;52.610;10.236;2023-12-20T11:43:02;100334.75;;;8.80;77.51
49072;BME280;74284;52.610;10.236;2023-12-20T11:45:28;100297.78;;;8.80;76.48
49072;BME280;74284;52.610;10.236;2023-12-20T11:47:53;100298.22;;;8.70;75.95
49072;BME280;74284;52.610;10.236;2023-12-20T11:50:20;100306.38;;;8.63;76.10
49072;BME280;74284;52.610;10.236;2023-12-20T11:52:46;100285.47;;;8.57;75.44
49072;BME280;74284;52.610;10.236;2023-12-20T11:55:11;100287.91;;;8.63;74.92
49072;BME280;74284;52.610;10.236;2023-12-20T11:57:37;100274.31;;;8.51;74.24
49072;BME280;74284;52.610;10.236;2023-12-20T12:00:04;100272.91;;;8.64;74.42
49072;BME280;74284;52.610;10.236;2023-12-20T12:02:31;100273.88;;;8.61;73.96
49072;BME280;74284;52.610;10.236;2023-12-20T12:04:57;100276.78;;;8.55;73.82
49072;BME280;74284;52.610;10.236;2023-12-20T12:07:24;100276.31;;;8.68;72.98
49072;BME280;74284;52.610;10.236;2023-12-20T12:09:49;100260.25;;;8.50;73.49
49072;BME280;74284;52.610;10.236;2023-12-20T12:12:14;100261.34;;;8.66;73.19
49072;BME280;74284;52.610;10.236;2023-12-20T12:14:40;100265.75;;;8.68;73.03
49072;BME280;74284;52.610;10.236;2023-12-20T12:17:12;100268.84;;;8.55;72.94
49072;BME280;74284;52.610;10.236;2023-12-20T12:19:38;100258.13;;;8.82;72.00
49072;BME280;74284;52.610;10.236;2023-12-20T12:22:07;100264.88;;;8.89;71.06
49072;BME280;74284;52.610;10.236;2023-12-20T12:24:36;100264.75;;;8.92;70.80
49072;BME280;74284;52.610;10.236;2023-12-20T12:27:02;100263.41;;;8.82;71.12
49072;BME280;74284;52.610;10.236;2023-12-20T12:29:27;100270.59;;;8.78;70.93
49072;BME280;74284;52.610;10.236;2023-12-20T12:31:53;100268.41;;;8.44;71.82
49072;BME280;74284;52.610;10.236;2023-12-20T12:34:18;100280.03;;;8.62;71.76
49072;BME280;74284;52.610;10.236;2023-12-20T12:36:43;100286.47;;;8.55;71.93
49072;BME280;74284;52.610;10.236;2023-12-20T12:39:12;100281.03;;;8.59;72.03
49072;BME280;74284;52.610;10.236;2023-12-20T12:41:37;100278.03;;;8.69;71.65
49072;BME280;74284;52.610;10.236;2023-12-20T12:44:02;100275.47;;;9.31;69.98
49072;BME280;74284;52.610;10.236;2023-12-20T12:46:28;100264.88;;;9.52;68.02
49072;BME280;74284;52.610;10.236;2023-12-20T12:48:54;100261.16;;;9.76;67.11